Time;durP1;ratioP1;P1;durP2;ratioP2;P2;SDS_P1;SDS_P2;PMS_P1;PMS_P2;Temp;Humidity;BMP_temperature;BMP_pressure;BME280_temperature;BME280_humidity;BME280_pressure;Samples;Min_cycle;Max_cycle;Signal;HPM_P1;HPM_P2
2022/10/12 00:00:49;;;;;;;14.77;10.67;;;7.20;99.90;;;-141.84;80.41;18381.28;5114834;28;20291;-67
2022/10/12 00:03:19;;;;;;;13.00;10.30;;;7.20;99.90;;;-141.84;80.43;18387.38;5113847;28;20227;-67
2022/10/12 00:05:50;;;;;;;16.40;10.80;;;7.10;99.90;;;-141.84;80.65;18367.06;5098290;28;20227;-68
2022/10/12 00:08:18;;;;;;;15.30;10.20;;;7.10;99.90;;;-141.84;80.88;18354.88;5094055;28;20228;-68
2022/10/12 00:10:46;;;;;;;15.30;11.03;;;7.10;99.90;;;-141.84;80.86;18354.88;5094554;28;20224;-69
2022/10/12 00:13:15;;;;;;;14.43;10.60;;;7.10;99.90;;;-141.84;80.44;18356.91;5093306;28;20214;-67
2022/10/12 00:15:43;;;;;;;14.13;10.63;;;7.10;99.90;;;-141.84;80.18;18348.78;5094105;28;20207;-67
2022/10/12 00:18:11;;;;;;;16.30;11.63;;;7.10;99.90;;;-141.84;79.25;18367.06;5092041;28;20292;-68
2022/10/12 00:20:39;;;;;;;13.83;10.40;;;7.20;99.90;;;-141.84;78.38;18367.06;5092994;28;20742;-68
2022/10/12 00:23:07;;;;;;;16.17;11.27;;;7.20;99.90;;;-141.84;77.63;18395.50;5093197;28;20224;-68
2022/10/12 00:25:38;;;;;;;15.90;10.13;;;7.20;99.90;;;-141.84;77.00;18417.84;5113513;28;20231;-67
2022/10/12 00:28:07;;;;;;;16.03;11.13;;;7.30;99.90;;;-141.84;77.21;18405.66;5113737;28;20183;-68
2022/10/12 00:30:41;;;;;;;18.00;10.13;;;7.30;99.90;;;-141.84;78.31;18358.94;5113602;28;20253;-66
2022/10/12 00:33:09;;;;;;;16.07;10.13;;;7.20;99.90;;;-141.84;79.05;18350.81;5113582;28;20750;-69
2022/10/12 00:35:37;;;;;;;14.07;10.43;;;7.10;99.90;;;-141.84;79.49;18350.81;5113338;28;20223;-68
2022/10/12 00:38:05;;;;;;;16.63;10.97;;;7.10;99.90;;;-141.84;79.30;18379.25;5113594;28;20474;-67
2022/10/12 00:40:33;;;;;;;16.77;10.60;;;7.00;99.90;;;-141.84;79.10;18358.94;5112918;28;20227;-67
2022/10/12 00:43:01;;;;;;;19.17;10.57;;;7.00;99.90;;;-141.84;79.72;18342.69;5113833;28;20202;-67
2022/10/12 00:45:30;;;;;;;15.23;10.70;;;7.00;99.90;;;-141.84;80.06;18322.38;5112963;28;20227;-67
2022/10/12 00:48:00;;;;;;;13.53;10.27;;;7.00;99.90;;;-141.84;79.84;18367.06;5113055;28;20268;-68
2022/10/12 00:50:35;;;;;;;13.17;10.07;;;7.00;99.90;;;-141.84;79.70;18318.31;5113153;28;20246;-67
2022/10/12 00:53:09;;;;;;;15.80;10.83;;;7.00;99.90;;;-141.84;80.23;18308.16;5113220;27;20634;-66
2022/10/12 00:55:43;;;;;;;19.53;12.80;;;6.80;99.90;;;-141.84;80.48;18330.50;5112959;28;20221;-67
2022/10/12 00:58:12;;;;;;;17.40;13.10;;;6.80;99.90;;;-141.84;79.94;18322.38;5112971;28;20187;-68
2022/10/12 01:00:42;;;;;;;17.43;12.40;;;6.90;99.90;;;-141.84;79.81;18354.88;5113295;28;20203;-67
2022/10/12 01:03:18;;;;;;;18.27;11.83;;;6.80;99.90;;;-141.84;80.32;18342.69;5112741;28;20219;-68
2022/10/12 01:05:46;;;;;;;18.10;13.33;;;6.80;99.90;;;-141.84;80.90;18326.44;5112422;28;20227;-66
2022/10/12 01:08:14;;;;;;;20.50;16.00;;;6.70;99.90;;;-141.84;81.21;18306.13;5112840;28;20276;-67
2022/10/12 01:10:42;;;;;;;20.97;17.20;;;6.70;99.90;;;-141.84;81.27;18318.31;5112812;27;20223;-67
2022/10/12 01:13:11;;;;;;;20.60;17.40;;;6.80;99.90;;;-141.84;81.50;18306.13;5112890;28;20215;-67
2022/10/12 01:15:48;;;;;;;24.50;18.93;;;6.70;99.90;;;-141.84;81.77;18285.81;5113341;28;20606;-67
2022/10/12 01:18:26;;;;;;;22.63;16.50;;;6.60;99.90;;;-141.84;81.91;18298.00;5112576;28;20726;-68
2022/10/12 01:21:11;;;;;;;21.33;16.47;;;6.50;99.90;;;-141.84;81.77;18306.13;5112340;28;20227;-68
2022/10/12 01:24:07;;;;;;;22.07;16.60;;;6.60;99.90;;;-141.84;81.58;18281.75;5108137;28;20227;-68
2022/10/12 01:27:01;;;;;;;21.03;15.27;;;6.60;99.90;;;-141.84;81.89;18300.03;5092228;28;20231;-67
2022/10/12 01:30:06;;;;;;;19.43;13.43;;;6.50;99.90;;;-141.84;81.91;18253.31;5092135;28;20232;-67
2022/10/12 01:32:47;;;;;;;14.63;11.40;;;6.50;99.90;;;-141.84;81.51;18304.09;5092100;28;20230;-68
2022/10/12 01:35:25;;;;;;;13.83;11.17;;;6.50;99.90;;;-141.84;80.85;18314.25;5091862;28;20220;-67
2022/10/12 01:38:06;;;;;;;14.03;10.30;;;6.50;99.90;;;-141.84;81.05;18289.88;5091734;28;20806;-68
2022/10/12 01:40:42;;;;;;;15.43;11.20;;;6.50;99.90;;;-141.84;81.29;18298.00;5104351;28;20237;-67
2022/10/12 01:43:10;;;;;;;15.20;10.80;;;6.50;99.90;;;-141.84;81.01;18281.75;5112205;28;20194;-67
2022/10/12 01:45:39;;;;;;;15.70;10.93;;;6.50;99.90;;;-141.84;80.81;18257.38;5112577;28;20219;-67
2022/10/12 01:48:07;;;;;;;13.93;10.47;;;6.50;99.90;;;-141.84;80.90;18259.41;5111911;28;20226;-69
2022/10/12 01:50:48;;;;;;;16.23;10.90;;;6.50;99.90;;;-141.84;80.67;18291.91;5111857;28;20284;-68
2022/10/12 01:53:30;;;;;;;16.73;10.70;;;6.40;99.90;;;-141.84;80.41;18257.38;5112080;28;20234;-67
2022/10/12 01:56:11;;;;;;;13.57;10.47;;;6.40;99.90;;;-141.84;80.74;18261.44;5111993;28;20219;-67
2022/10/12 01:59:01;;;;;;;13.63;10.47;;;6.40;99.90;;;-141.84;80.88;18277.69;5111816;28;20219;-67
2022/10/12 02:01:43;;;;;;;15.23;10.60;;;6.40;99.90;;;-141.84;80.21;18257.38;5111603;28;20225;-69
2022/10/12 02:04:22;;;;;;;16.20;10.87;;;6.40;99.90;;;-141.84;80.26;18289.88;5109634;28;20188;-68
2022/10/12 02:06:59;;;;;;;12.77;10.70;;;6.40;99.90;;;-141.84;78.98;18259.41;5091395;28;20211;-68
2022/10/12 02:09:32;;;;;;;14.67;11.20;;;6.50;99.90;;;-141.84;78.28;18293.94;5091173;28;20239;-67
2022/10/12 02:12:09;;;;;;;11.93;9.87;;;6.50;99.90;;;-141.84;77.94;18279.72;5091003;28;20428;-67
2022/10/12 02:14:42;;;;;;;13.40;10.00;;;6.50;99.90;;;-141.84;78.87;18289.88;5091176;28;20227;-67
2022/10/12 02:17:16;;;;;;;14.63;10.23;;;6.40;99.90;;;-141.84;79.49;18237.06;5090941;28;20226;-68
2022/10/12 02:19:50;;;;;;;13.67;9.97;;;6.40;99.90;;;-141.84;80.01;18232.97;5090879;28;20722;-67
2022/10/12 02:22:18;;;;;;;18.93;9.90;;;6.30;99.90;;;-141.84;80.16;18259.41;5107141;28;20685;-66
2022/10/12 02:24:50;;;;;;;15.50;10.63;;;6.30;99.90;;;-141.84;80.18;18249.25;5111614;28;20217;-67
2022/10/12 02:27:21;;;;;;;11.90;9.97;;;6.30;99.90;;;-141.84;80.23;18257.38;5110946;28;20579;-66
2022/10/12 02:29:49;;;;;;;14.47;10.43;;;6.30;99.90;;;-141.84;79.36;18277.69;5111288;28;20652;-67
2022/10/12 02:32:27;;;;;;;13.23;10.17;;;6.30;99.90;;;-141.84;79.62;18239.09;5111064;28;20230;-66
2022/10/12 02:35:05;;;;;;;12.83;9.90;;;6.30;99.90;;;-141.84;80.26;18269.56;5110902;28;20219;-68
2022/10/12 02:37:40;;;;;;;12.07;9.60;;;6.30;99.90;;;-141.84;80.41;18241.13;5111322;28;20218;-66
2022/10/12 02:40:17;;;;;;;16.60;10.23;;;6.20;99.90;;;-141.84;80.77;18253.31;5111073;28;20187;-68
2022/10/12 02:42:51;;;;;;;14.90;9.70;;;6.20;99.90;;;-141.84;80.79;18239.09;5111205;28;20190;-69
2022/10/12 02:45:43;;;;;;;14.83;9.80;;;6.10;99.90;;;-141.84;80.85;18257.38;5110937;28;20280;-67
2022/10/12 02:48:20;;;;;;;13.73;10.37;;;6.10;99.90;;;-141.84;80.76;18263.47;5111027;28;20294;-68
2022/10/12 02:50:54;;;;;;;12.00;9.37;;;6.10;99.90;;;-141.84;80.52;18253.31;5114021;28;20767;-67
2022/10/12 02:53:25;;;;;;;12.47;9.30;;;6.10;99.90;;;-141.84;79.92;18247.22;5112649;28;20227;-68
2022/10/12 02:55:59;;;;;;;15.00;9.30;;;6.10;99.90;;;-141.84;79.05;18261.44;5111424;28;20226;-68
2022/10/12 02:58:27;;;;;;;14.90;9.67;;;6.20;99.90;;;-141.84;78.97;18261.44;5111387;28;20229;-68
2022/10/12 03:00:55;;;;;;;11.70;9.40;;;6.20;99.90;;;-141.84;79.51;18259.41;5111399;28;20287;-65
2022/10/12 03:03:25;;;;;;;10.47;9.30;;;6.10;99.90;;;-141.84;80.09;18228.91;5111187;28;20254;-68
2022/10/12 03:05:53;;;;;;;12.13;9.77;;;6.10;99.90;;;-141.84;80.25;18220.78;5094335;28;20224;-66
2022/10/12 03:08:21;;;;;;;14.27;9.43;;;6.10;99.90;;;-141.84;80.39;18208.59;5095796;28;20226;-66
2022/10/12 03:10:49;;;;;;;15.10;9.80;;;6.00;99.90;;;-141.84;80.53;18190.31;5110908;28;20347;-68
2022/10/12 03:13:18;;;;;;;12.03;8.77;;;6.00;99.90;;;-141.84;80.70;18192.34;5110708;28;20694;-67
2022/10/12 03:15:46;;;;;;;11.20;8.10;;;5.90;99.90;;;-141.84;80.94;18210.63;5111147;28;20202;-68
2022/10/12 03:18:14;;;;;;;10.93;8.87;;;5.90;99.90;;;-141.84;80.91;18210.63;5110045;28;20274;-67
2022/10/12 03:20:48;;;;;;;12.10;8.90;;;5.90;99.90;;;-141.84;81.18;18188.28;5110914;28;20234;-67
2022/10/12 03:23:16;;;;;;;13.93;8.97;;;5.90;99.90;;;-141.84;81.25;18222.81;5110735;28;20241;-67
2022/10/12 03:25:44;;;;;;;12.10;8.00;;;5.80;99.90;;;-141.84;81.33;18224.84;5110633;28;20230;-67
2022/10/12 03:28:12;;;;;;;15.70;8.93;;;5.80;99.90;;;-141.84;81.20;18208.59;5110666;28;20203;-66
2022/10/12 03:30:40;;;;;;;12.23;8.23;;;5.80;99.90;;;-141.84;81.13;18196.41;5111445;28;20244;-66
2022/10/12 03:33:08;;;;;;;11.37;8.70;;;5.80;99.90;;;-141.84;80.73;18192.34;5110498;28;20231;-68
2022/10/12 03:35:36;;;;;;;9.90;8.37;;;5.80;99.90;;;-141.84;80.73;18182.19;5110715;28;20226;-66
2022/10/12 03:38:05;;;;;;;10.57;8.50;;;5.80;99.90;;;-141.84;81.21;18188.28;5110538;28;20233;-68
2022/10/12 03:40:34;;;;;;;15.47;8.17;;;5.80;99.90;;;-141.84;81.45;18176.09;5110585;28;20235;-67
2022/10/12 03:43:02;;;;;;;10.90;8.57;;;5.70;99.90;;;-141.84;81.28;18196.41;5110952;28;20207;-67
2022/10/12 03:45:30;;;;;;;11.43;8.60;;;5.70;99.90;;;-141.84;81.61;18182.19;5110811;28;20219;-68
2022/10/12 03:47:58;;;;;;;14.27;8.77;;;5.70;99.90;;;-141.84;81.79;18198.44;5110298;28;20234;-68
2022/10/12 03:50:33;;;;;;;10.50;8.20;;;5.70;99.90;;;-141.84;81.84;18165.94;5110688;28;20230;-68
2022/10/12 03:53:02;;;;;;;10.63;8.13;;;5.70;99.90;;;-141.84;81.61;18172.03;5111958;28;20632;-67
2022/10/12 03:55:32;;;;;;;10.63;8.37;;;5.70;99.90;;;-141.84;81.28;18184.22;5114171;28;20223;-68
2022/10/12 03:58:00;;;;;;;12.70;7.80;;;5.70;99.90;;;-141.84;79.62;18184.22;5114930;28;20209;-67
2022/10/12 04:00:28;;;;;;;15.10;8.23;;;5.80;99.90;;;-141.84;78.72;18220.78;5113938;28;20230;-68
2022/10/12 04:02:57;;;;;;;11.90;8.07;;;5.90;99.90;;;-141.84;78.57;18243.16;5113834;28;20242;-67
2022/10/12 04:05:25;;;;;;;11.53;7.90;;;5.90;99.90;;;-141.84;78.92;18194.38;5101601;28;20230;-68
2022/10/12 04:07:53;;;;;;;12.37;8.03;;;5.80;99.90;;;-141.84;79.79;18198.44;5093437;28;20234;-66
2022/10/12 04:10:21;;;;;;;13.03;8.67;;;5.80;99.90;;;-141.84;80.52;18192.34;5093740;28;20211;-68
2022/10/12 04:12:51;;;;;;;11.87;8.17;;;5.70;99.90;;;-141.84;80.42;18208.59;5093632;28;20207;-66
2022/10/12 04:15:19;;;;;;;11.07;8.03;;;5.70;99.90;;;-141.84;80.12;18165.94;5093348;28;20611;-66
2022/10/12 04:17:47;;;;;;;12.97;8.47;;;5.80;99.90;;;-141.84;79.95;18176.09;5092735;28;20281;-67
2022/10/12 04:20:15;;;;;;;10.83;8.27;;;5.80;99.90;;;-141.84;79.33;18188.28;5093074;28;20265;-67
2022/10/12 04:22:43;;;;;;;10.87;7.10;;;5.80;99.90;;;-141.84;79.56;18226.88;5093236;28;20227;-66
2022/10/12 04:25:12;;;;;;;9.83;7.10;;;5.80;99.90;;;-141.84;79.51;18208.59;5110469;28;20232;-68
2022/10/12 04:27:40;;;;;;;12.00;7.60;;;5.80;99.90;;;-141.84;80.41;18141.56;5113867;28;20223;-67
2022/10/12 04:30:11;;;;;;;10.40;7.97;;;5.70;99.90;;;-141.84;79.91;18176.09;5113818;28;20252;-67
2022/10/12 04:32:40;;;;;;;13.40;7.33;;;5.70;99.90;;;-141.84;80.39;18204.53;5113400;28;20226;-68
2022/10/12 04:35:08;;;;;;;11.40;7.40;;;5.70;99.90;;;-141.84;81.08;18147.66;5113228;28;20226;-68
2022/10/12 04:37:36;;;;;;;10.13;7.57;;;5.60;99.90;;;-141.84;81.05;18184.22;5114152;28;20257;-67
2022/10/12 04:40:07;;;;;;;9.73;7.47;;;5.60;99.90;;;-141.84;80.81;18192.34;5113673;28;20804;-67
2022/10/12 04:42:35;;;;;;;12.33;8.17;;;5.60;99.90;;;-141.84;80.81;18153.75;5113571;28;20223;-68
2022/10/12 04:45:03;;;;;;;10.50;7.00;;;5.60;99.90;;;-141.84;80.42;18182.19;5113407;27;20230;-67
2022/10/12 04:47:34;;;;;;;11.07;7.10;;;5.60;99.90;;;-141.84;79.57;18188.28;5113181;28;20231;-69
2022/10/12 04:50:02;;;;;;;8.67;6.67;;;5.70;99.90;;;-141.84;78.78;18202.50;5113297;27;20222;-68
2022/10/12 04:52:30;;;;;;;9.27;6.30;;;5.80;99.90;;;-141.84;79.21;18198.44;5112981;28;20231;-68
2022/10/12 04:54:58;;;;;;;10.17;7.03;;;5.70;99.90;;;-141.84;79.53;18184.22;5113533;28;20211;-66
2022/10/12 04:57:26;;;;;;;11.40;7.10;;;5.70;99.90;;;-141.84;79.94;18204.53;5112824;28;20295;-68
2022/10/12 04:59:54;;;;;;;12.60;7.30;;;5.70;99.90;;;-141.84;79.51;18172.03;5112797;28;20222;-67
2022/10/12 05:02:22;;;;;;;9.23;6.97;;;5.70;99.90;;;-141.84;80.09;18180.16;5112916;28;20842;-66
2022/10/12 05:04:52;;;;;;;11.33;7.03;;;5.70;99.90;;;-141.84;80.54;18220.78;5104599;28;20603;-67
2022/10/12 05:07:20;;;;;;;11.57;7.53;;;5.70;99.90;;;-141.84;80.02;18184.22;5092534;28;20219;-68
2022/10/12 05:09:48;;;;;;;12.60;8.27;;;5.70;99.90;;;-141.84;79.92;18204.53;5098985;28;20202;-68
2022/10/12 05:12:16;;;;;;;10.03;7.80;;;5.70;99.90;;;-141.84;80.48;18190.31;5112568;28;20230;-67
2022/10/12 05:14:44;;;;;;;13.00;7.83;;;5.70;99.90;;;-141.84;80.65;18180.16;5112394;28;20307;-67
2022/10/12 05:17:12;;;;;;;12.20;8.00;;;5.70;99.90;;;-141.84;80.54;18192.34;5112778;28;20223;-67
2022/10/12 05:19:40;;;;;;;12.40;7.80;;;5.60;99.90;;;-141.84;80.00;18192.34;5112286;28;20767;-67
2022/10/12 05:22:10;;;;;;;10.00;7.53;;;5.60;99.90;;;-141.84;79.72;18147.66;5112690;28;20206;-67
2022/10/12 05:24:38;;;;;;;11.80;7.60;;;5.50;99.90;;;-141.84;79.42;18155.78;5112606;27;20236;-68
2022/10/12 05:27:06;;;;;;;10.83;7.10;;;5.40;99.90;;;-141.84;79.61;18155.78;5112246;28;20244;-67
2022/10/12 05:29:34;;;;;;;10.80;7.80;;;5.40;99.90;;;-141.84;79.43;18188.28;5112489;28;20236;-69
2022/10/12 05:32:02;;;;;;;12.70;7.87;;;5.40;99.90;;;-141.84;79.40;18139.53;5112514;28;20226;-67
2022/10/12 05:34:30;;;;;;;11.27;8.17;;;5.40;99.90;;;-141.84;79.10;18137.50;5111609;28;20721;-66
2022/10/12 05:36:58;;;;;;;10.37;8.03;;;5.40;99.90;;;-141.84;79.42;18172.03;5112315;28;20198;-66
2022/10/12 05:39:28;;;;;;;12.53;7.83;;;5.30;99.90;;;-141.84;80.02;18147.66;5111667;28;20226;-65
2022/10/12 05:41:55;;;;;;;9.90;8.40;;;5.30;99.90;;;-141.84;80.34;18194.38;5111837;28;20271;-67
2022/10/12 05:44:24;;;;;;;10.90;7.73;;;5.30;99.90;;;-141.84;80.46;18151.72;5111950;28;20233;-67
2022/10/12 05:46:52;;;;;;;12.90;7.97;;;5.30;99.90;;;-141.84;80.48;18137.50;5112072;28;20226;-68
2022/10/12 05:49:20;;;;;;;12.20;8.43;;;5.30;99.90;;;-141.84;80.57;18145.63;5111779;28;20207;-66
2022/10/12 05:51:48;;;;;;;13.33;8.33;;;5.30;99.90;;;-141.84;79.29;18167.97;5112202;28;20222;-67
2022/10/12 05:54:16;;;;;;;12.53;8.27;;;5.40;99.90;;;-141.84;78.71;18174.06;5111486;28;20231;-66
2022/10/12 05:56:45;;;;;;;15.73;8.57;;;5.50;99.90;;;-141.84;78.32;18188.28;5111811;28;20231;-66
2022/10/12 05:59:13;;;;;;;12.37;8.53;;;5.50;99.90;;;-141.84;77.75;18241.13;5111568;28;20223;-67
2022/10/12 06:01:42;;;;;;;14.17;8.87;;;5.60;99.90;;;-141.84;77.96;18224.84;5112150;28;20234;-67
2022/10/12 06:04:11;;;;;;;12.60;8.10;;;5.70;99.90;;;-141.84;78.27;18178.13;5109485;28;20248;-66
2022/10/12 06:06:39;;;;;;;16.43;8.43;;;5.70;99.90;;;-141.84;78.78;18198.44;5102848;28;20204;-66
2022/10/12 06:09:07;;;;;;;12.33;8.70;;;5.70;99.90;;;-141.84;78.36;18237.06;5111247;28;20229;-67
2022/10/12 06:11:36;;;;;;;14.20;9.07;;;5.80;99.90;;;-141.84;78.25;18188.28;5111363;28;20224;-66
2022/10/12 06:14:05;;;;;;;13.70;8.43;;;5.80;99.90;;;-141.84;78.66;18196.41;5111012;28;20226;-66
2022/10/12 06:16:33;;;;;;;13.23;8.63;;;5.90;99.90;;;-141.84;78.70;18202.50;5110249;28;20697;-67
2022/10/12 06:19:01;;;;;;;13.53;8.37;;;6.00;99.90;;;-141.84;78.62;18228.91;5111082;28;20191;-67
2022/10/12 06:21:29;;;;;;;11.83;8.67;;;6.00;99.90;;;-141.84;78.59;18214.69;5111004;28;20276;-67
2022/10/12 06:24:02;;;;;;;11.53;9.03;;;6.10;99.90;;;-141.84;78.09;18208.59;5110869;28;20231;-68
2022/10/12 06:26:30;;;;;;;13.83;9.13;;;6.20;99.90;;;-141.84;77.21;18259.41;5111316;28;20283;-67
2022/10/12 06:28:59;;;;;;;15.60;9.03;;;6.30;99.90;;;-141.84;77.09;18243.16;5110811;28;20235;-67
2022/10/12 06:31:29;;;;;;;14.67;8.53;;;6.40;99.90;;;-141.84;76.54;18269.56;5111132;28;20249;-67
2022/10/12 06:33:57;;;;;;;13.67;8.57;;;6.50;99.90;;;-141.84;75.80;18291.91;5111536;28;20211;-68
2022/10/12 06:36:25;;;;;;;14.50;8.73;;;6.60;99.90;;;-141.84;75.70;18293.94;5111074;28;20230;-66
2022/10/12 06:38:54;;;;;;;14.73;8.07;;;6.70;99.90;;;-141.84;74.93;18320.34;5111283;28;20219;-67
2022/10/12 06:41:22;;;;;;;12.60;8.20;;;6.80;99.90;;;-141.84;74.84;18332.53;5110602;28;20219;-65
2022/10/12 06:43:50;;;;;;;10.73;8.00;;;6.90;99.90;;;-141.84;74.77;18326.44;5110282;28;20251;-64
2022/10/12 06:46:18;;;;;;;12.57;8.20;;;7.00;99.90;;;-141.84;74.38;18363.00;5110607;28;20211;-64
2022/10/12 06:48:47;;;;;;;9.43;7.57;;;7.10;99.90;;;-141.84;74.17;18350.81;5111226;28;20220;-64
2022/10/12 06:51:15;;;;;;;12.17;8.13;;;7.20;99.90;;;-141.84;73.75;18373.16;5107884;28;20223;-64
2022/10/12 06:53:43;;;;;;;11.87;7.90;;;7.30;99.90;;;-141.84;73.38;18365.03;5107757;28;20223;-63
2022/10/12 06:56:12;;;;;;;13.53;8.10;;;7.40;99.90;;;-141.84;73.06;18430.06;5110343;28;20220;-64
2022/10/12 06:58:40;;;;;;;15.40;7.77;;;7.50;99.90;;;-141.84;72.57;18395.50;5110570;28;20212;-64
2022/10/12 07:01:09;;;;;;;12.43;7.57;;;7.60;99.90;;;-141.84;72.31;18395.50;5110681;28;20585;-64
2022/10/12 07:03:37;;;;;;;12.57;7.10;;;7.80;99.90;;;-141.84;71.99;18430.06;5108082;28;20217;-64
2022/10/12 07:06:11;;;;;;;12.97;7.53;;;7.70;99.90;;;-141.84;71.93;18456.47;5110189;28;20246;-65
2022/10/12 07:08:40;;;;;;;11.17;7.43;;;7.90;99.90;;;-141.84;71.80;18476.78;5110282;28;20215;-65
2022/10/12 07:11:12;;;;;;;11.33;7.23;;;8.00;99.90;;;-141.84;70.60;18515.38;5110271;28;20227;-65
2022/10/12 07:13:40;;;;;;;10.30;6.77;;;8.10;99.90;;;-141.84;70.44;18547.88;5110776;28;20238;-64
2022/10/12 07:16:08;;;;;;;10.13;6.97;;;8.30;99.90;;;-141.84;70.22;18533.66;5110710;28;20674;-64
2022/10/12 07:18:37;;;;;;;11.90;6.73;;;8.40;99.90;;;-141.84;69.67;18558.03;5111472;28;20199;-64
2022/10/12 07:21:07;;;;;;;10.80;7.63;;;8.40;99.90;;;-141.84;69.40;18580.41;5109836;28;20231;-65
2022/10/12 07:23:36;;;;;;;11.33;6.87;;;8.60;99.90;;;-141.84;68.92;18639.31;5107603;28;20219;-64
2022/10/12 07:26:09;;;;;;;9.63;6.20;;;8.70;99.90;;;-141.84;68.89;18647.44;5109910;28;20231;-64
2022/10/12 07:28:37;;;;;;;11.23;6.93;;;8.80;99.90;;;-141.84;68.56;18657.59;5113408;28;20230;-66
2022/10/12 07:31:08;;;;;;;8.77;6.40;;;8.80;99.90;;;-141.84;68.20;18702.28;5112643;28;20203;-69
2022/10/12 07:33:38;;;;;;;11.10;6.60;;;9.00;99.90;;;-141.84;67.94;18742.94;5114776;28;20204;-68
2022/10/12 07:36:09;;;;;;;10.70;6.23;;;9.10;99.90;;;-141.84;67.47;18783.56;5114086;28;20223;-68
2022/10/12 07:38:44;;;;;;;8.93;6.63;;;9.20;99.90;;;-141.84;67.09;18791.69;5114247;27;20258;-69
2022/10/12 07:41:13;;;;;;;7.93;6.27;;;9.40;99.90;;;-141.84;66.32;18848.59;5113874;28;20325;-68
2022/10/12 07:43:42;;;;;;;10.97;6.27;;;9.50;99.90;;;-141.84;65.79;18895.31;5113788;28;20671;-70
2022/10/12 07:46:11;;;;;;;8.67;6.57;;;9.60;99.90;;;-141.84;64.66;19009.09;5113807;28;20235;-68
2022/10/12 07:48:40;;;;;;;11.23;6.40;;;9.60;99.90;;;-141.84;64.88;18990.81;5114349;28;20219;-68
2022/10/12 07:51:17;;;;;;;8.30;5.40;;;9.70;99.90;;;-141.84;63.92;19051.78;5113822;28;20230;-70
2022/10/12 07:53:46;;;;;;;11.70;6.27;;;9.90;99.90;;;-141.84;63.68;19076.16;5113864;28;20238;-68
2022/10/12 07:56:15;;;;;;;11.87;5.77;;;9.90;99.90;;;-141.84;63.18;19175.72;5113930;28;20223;-67
2022/10/12 07:58:47;;;;;;;11.70;5.60;;;10.00;99.90;;;-141.84;62.70;19240.75;5113640;27;20223;-66
2022/10/12 08:01:15;;;;;;;11.33;5.50;;;10.10;99.90;;;-141.84;62.09;19320.00;5113866;28;20203;-72
2022/10/12 08:03:43;;;;;;;9.33;5.37;;;10.10;99.90;;;-141.84;62.11;19356.59;5114638;28;20199;-71
2022/10/12 08:06:15;;;;;;;10.73;5.20;;;10.30;99.90;;;-141.84;61.79;19374.88;5094263;28;20224;-71
2022/10/12 08:08:45;;;;;;;8.87;5.03;;;10.30;99.90;;;-141.84;62.12;19362.69;5093271;28;20228;-68
2022/10/12 08:11:13;;;;;;;6.80;5.17;;;10.40;99.90;;;-141.84;61.47;19387.06;5093159;28;20223;-68
2022/10/12 08:13:42;;;;;;;10.47;5.97;;;10.40;99.90;;;-141.84;60.89;19448.03;5093281;28;20216;-67
2022/10/12 08:16:13;;;;;;;10.70;5.33;;;10.60;99.90;;;-141.84;60.29;19504.94;5093334;28;20204;-69
2022/10/12 08:18:43;;;;;;;8.67;5.13;;;10.60;99.90;;;-141.84;60.74;19521.19;5093941;28;20189;-68
2022/10/12 08:21:14;;;;;;;11.97;5.17;;;10.70;99.90;;;-141.84;60.65;19504.94;5093343;28;20249;-69
2022/10/12 08:23:45;;;;;;;9.90;5.00;;;10.70;99.90;;;-141.84;60.10;19569.97;5098367;28;20250;-69
2022/10/12 08:26:14;;;;;;;7.33;4.77;;;10.80;99.90;;;-141.84;60.21;19555.75;5114095;28;20226;-70
2022/10/12 08:28:43;;;;;;;10.70;5.10;;;10.90;99.90;;;-141.84;59.69;19608.56;5113820;28;20310;-68
2022/10/12 08:31:15;;;;;;;10.73;5.13;;;11.00;99.90;;;-141.84;59.30;19635.00;5113628;28;20226;-67
2022/10/12 08:33:43;;;;;;;9.13;4.50;;;11.10;99.90;;;-141.84;59.44;19622.81;5115155;28;20192;-70
2022/10/12 08:36:13;;;;;;;7.10;4.00;;;11.10;99.90;;;-141.84;58.96;19712.22;5114720;28;20761;-70
2022/10/12 08:38:42;;;;;;;8.80;4.53;;;11.20;99.90;;;-141.84;58.79;19691.91;5112874;28;20222;-69
2022/10/12 08:41:31;;;;;;;7.70;4.73;;;11.30;99.90;;;-141.84;59.07;19722.38;5113766;27;20219;-71
2022/10/12 08:44:34;;;;;;;6.93;4.07;;;11.30;99.90;;;-141.84;58.41;19748.81;5113976;28;20225;-69
2022/10/12 08:47:13;;;;;;;5.87;4.00;;;11.40;99.90;;;-141.84;57.66;19807.75;5114456;28;20219;-70
2022/10/12 08:49:43;;;;;;;8.20;3.80;;;11.50;99.90;;;-141.84;57.31;19852.44;5114361;27;20227;-70
2022/10/12 08:52:28;;;;;;;6.37;3.73;;;11.80;99.90;;;-141.84;57.24;19887.00;5114394;28;20534;-69
2022/10/12 08:55:05;;;;;;;8.77;3.83;;;11.70;99.90;;;-141.84;56.64;19897.16;5114090;28;20206;-69
2022/10/12 08:57:35;;;;;;;6.73;3.40;;;11.80;99.90;;;-141.84;56.88;19915.47;5113427;28;20256;-68
2022/10/12 09:00:04;;;;;;;8.37;4.13;;;11.90;99.90;;;-141.84;56.02;19929.69;5113187;27;20223;-68
2022/10/12 09:02:51;;;;;;;10.73;3.50;;;12.10;99.90;;;-141.84;54.87;20004.88;5112628;27;20215;-69
2022/10/12 09:05:28;;;;;;;7.93;3.17;;;12.20;99.90;;;-141.84;55.45;20004.88;5112507;28;20226;-65
2022/10/12 09:08:04;;;;;;;4.73;2.83;;;12.30;99.90;;;-141.84;55.12;20019.13;5112817;28;20631;-67
2022/10/12 09:10:44;;;;;;;7.03;3.43;;;12.50;99.90;;;-141.84;55.08;20057.72;5112981;28;20283;-68
2022/10/12 09:13:31;;;;;;;9.83;2.87;;;12.60;99.90;;;-141.84;54.50;20069.94;5112601;28;20244;-65
2022/10/12 09:16:04;;;;;;;6.20;2.90;;;12.70;99.90;;;-141.84;54.24;20080.09;5095308;28;20204;-70
2022/10/12 09:18:40;;;;;;;7.93;3.22;;;12.80;99.90;;;-141.84;54.36;20094.31;5113162;28;20207;-70
2022/10/12 09:21:16;;;;;;;9.80;3.17;;;12.80;99.90;;;-141.84;53.27;20169.53;5112534;28;20725;-68
2022/10/12 09:23:45;;;;;;;5.78;2.60;;;12.90;99.90;;;-141.84;53.11;20147.16;5112422;28;20484;-67
2022/10/12 09:26:17;;;;;;;5.68;2.97;;;12.90;99.90;;;-141.84;53.06;20163.41;5112401;28;20717;-68
2022/10/12 09:28:51;;;;;;;9.80;2.70;;;13.00;99.90;;;-141.84;53.47;20183.75;5112308;28;20272;-71
2022/10/12 09:31:38;;;;;;;6.17;2.80;;;13.10;99.90;;;-141.84;53.61;20139.03;5112141;28;20187;-73
2022/10/12 09:34:09;;;;;;;8.07;2.83;;;13.20;99.90;;;-141.84;52.96;20222.38;5112795;28;20213;-72
2022/10/12 09:36:39;;;;;;;7.10;2.70;;;13.20;99.90;;;-141.84;52.51;20204.06;5112567;28;20260;-69
2022/10/12 09:39:15;;;;;;;6.70;2.75;;;13.30;99.90;;;-141.84;52.28;20244.72;5111414;28;20586;-69
2022/10/12 09:41:47;;;;;;;8.40;2.67;;;13.40;99.90;;;-141.84;52.34;20228.47;5111896;28;20279;-69
2022/10/12 09:44:28;;;;;;;9.05;3.10;;;13.40;99.90;;;-141.84;52.21;20256.91;5110979;28;20223;-70
2022/10/12 09:47:00;;;;;;;6.93;3.15;;;13.50;99.90;;;-141.84;51.95;20254.88;5111723;28;20268;-69
2022/10/12 09:49:41;;;;;;;9.57;2.95;;;13.60;99.90;;;-141.84;52.21;20236.59;5111692;28;20300;-70
2022/10/12 09:52:12;;;;;;;7.30;2.40;;;13.50;99.90;;;-141.84;52.06;20228.47;5111537;27;20264;-71
2022/10/12 09:54:47;;;;;;;7.53;3.33;;;13.60;99.90;;;-141.84;51.80;20313.84;5112021;28;20244;-70
2022/10/12 09:57:20;;;;;;;5.72;2.67;;;13.60;99.90;;;-141.84;51.95;20293.50;5111763;28;20706;-69
2022/10/12 09:59:50;;;;;;;9.10;2.85;;;13.70;99.90;;;-141.84;51.47;20305.69;5112287;27;20269;-68
2022/10/12 10:02:20;;;;;;;5.20;2.10;;;13.80;99.90;;;-141.84;51.68;20321.97;5111839;28;20227;-69
2022/10/12 10:04:49;;;;;;;7.18;3.10;;;13.80;99.90;;;-141.84;51.19;20358.56;5111601;28;20523;-69
2022/10/12 10:07:29;;;;;;;5.50;2.55;;;13.90;99.90;;;-141.84;51.08;20313.84;5111846;28;20207;-71
2022/10/12 10:10:15;;;;;;;5.63;2.90;;;14.00;99.90;;;-141.84;50.97;20328.06;5112108;28;20336;-71
2022/10/12 10:12:50;;;;;;;8.77;2.65;;;14.00;99.90;;;-141.84;50.56;20340.25;5111898;27;20203;-67
2022/10/12 10:15:28;;;;;;;5.35;2.55;;;14.10;99.90;;;-141.84;50.46;20387.00;5111778;27;20311;-66
2022/10/12 10:18:00;;;;;;;7.72;2.42;;;14.10;99.90;;;-141.84;50.17;20372.78;5111478;28;20280;-66
2022/10/12 10:20:33;;;;;;;5.90;2.92;;;14.20;99.90;;;-141.84;50.12;20358.56;5111542;28;20231;-66
2022/10/12 10:23:04;;;;;;;10.65;2.88;;;14.30;99.90;;;-141.84;49.83;20407.34;5111034;28;20706;-66